createdAt,value
2022-09-29T00:03:57.237Z,8.90
2022-09-29T00:08:59.592Z,8.90
2022-09-29T00:14:03.458Z,8.90
2022-09-29T00:19:06.253Z,8.90
2022-09-29T00:24:08.901Z,8.80
2022-09-29T00:29:13.170Z,8.80
2022-09-29T00:34:15.671Z,8.70
2022-09-29T00:39:17.919Z,8.70
2022-09-29T00:44:59.379Z,8.60
2022-09-29T00:50:09.760Z,8.50
2022-09-29T00:55:17.709Z,8.50
2022-09-29T01:00:21.852Z,8.40
2022-09-29T01:05:27.901Z,8.40
2022-09-29T01:10:30.372Z,8.40
2022-09-29T01:15:34.745Z,8.30
2022-09-29T01:20:48.987Z,8.30
2022-09-29T01:26:40.549Z,8.20
2022-09-29T01:31:56.850Z,8.20
2022-09-29T01:37:11.299Z,8.20
2022-09-29T01:42:18.836Z,8.10
2022-09-29T01:47:27.901Z,8.10
2022-09-29T01:52:33.879Z,8.00
2022-09-29T01:57:40.702Z,8.00
2022-09-29T02:02:49.651Z,7.90
2022-09-29T02:07:54.423Z,7.90
2022-09-29T02:12:59.926Z,7.80
2022-09-29T02:18:12.009Z,7.70
2022-09-29T02:23:14.619Z,7.70
2022-09-29T02:28:17.960Z,7.70
2022-09-29T02:33:25.308Z,7.60
2022-09-29T02:38:36.940Z,7.70
2022-09-29T02:44:14.749Z,7.60
2022-09-29T02:49:35.119Z,7.50
2022-09-29T02:54:53.770Z,7.50
2022-09-29T03:00:02.303Z,7.50
2022-09-29T03:05:08.724Z,7.40
2022-09-29T03:10:13.436Z,7.50
2022-09-29T03:15:16.280Z,7.50
2022-09-29T03:20:20.601Z,7.50
2022-09-29T03:25:23.053Z,7.50
2022-09-29T03:30:25.950Z,7.40
2022-09-29T03:35:29.979Z,7.40
2022-09-29T03:40:32.566Z,7.40
2022-09-29T03:45:35.204Z,7.40
2022-09-29T03:50:39.376Z,7.40
2022-09-29T03:55:46.514Z,7.40
2022-09-29T04:00:49.547Z,7.40
2022-09-29T04:05:53.698Z,7.50
2022-09-29T04:10:56.408Z,7.60
2022-09-29T04:15:59.901Z,7.60
2022-09-29T04:21:08.777Z,7.60
2022-09-29T04:26:11.659Z,7.70
2022-09-29T04:31:14.227Z,7.70
2022-09-29T04:36:18.419Z,7.70
2022-09-29T04:41:20.772Z,7.70
2022-09-29T04:46:23.285Z,7.70
2022-09-29T04:51:27.560Z,7.70
2022-09-29T05:02:34.320Z,7.60
2022-09-29T05:07:39.464Z,7.60
2022-09-29T05:12:47.268Z,7.60
2022-09-29T05:17:50.270Z,7.50
2022-09-29T05:22:54.550Z,7.50
2022-09-29T05:27:58.061Z,7.50
2022-09-29T05:33:00.502Z,7.60
2022-09-29T05:38:04.383Z,7.60
2022-09-29T05:43:07.004Z,7.60
2022-09-29T05:48:09.453Z,7.60
2022-09-29T05:53:13.354Z,7.70
2022-09-29T05:58:15.700Z,7.80
2022-09-29T06:03:18.063Z,7.80
2022-09-29T06:08:22.887Z,7.90
2022-09-29T06:13:25.776Z,7.90
2022-09-29T06:18:28.569Z,8.00
2022-09-29T06:23:33.419Z,8.10
2022-09-29T06:28:37.082Z,8.20
2022-09-29T06:33:39.831Z,8.30
2022-09-29T06:38:43.974Z,8.30
2022-09-29T06:43:46.492Z,8.30
2022-09-29T06:48:48.931Z,8.40
2022-09-29T06:54:01.580Z,8.40
2022-09-29T06:59:08.443Z,8.60
2022-09-29T07:04:11.843Z,8.70
2022-09-29T07:09:16.193Z,8.80
2022-09-29T07:14:20.952Z,9.00
2022-09-29T07:19:23.503Z,9.10
2022-09-29T07:24:28.266Z,9.30
2022-09-29T07:29:30.663Z,9.50
2022-09-29T07:34:33.247Z,9.70
2022-09-29T07:39:37.325Z,9.80
2022-09-29T07:44:40.044Z,10.00
2022-09-29T07:49:42.776Z,10.20
2022-09-29T07:54:46.852Z,10.30
2022-09-29T07:59:53.219Z,10.50
2022-09-29T08:05:01.384Z,10.60
2022-09-29T08:10:16.925Z,10.80
2022-09-29T08:15:20.628Z,10.90
2022-09-29T08:20:24.168Z,11.10
2022-09-29T08:25:28.103Z,11.20
2022-09-29T08:30:30.464Z,11.50
2022-09-29T08:35:32.722Z,11.80
2022-09-29T08:40:36.810Z,12.20
2022-09-29T08:45:57.780Z,12.60
2022-09-29T08:51:06.045Z,13.00
2022-09-29T08:56:16.143Z,13.40
2022-09-29T09:01:25.277Z,13.70
2022-09-29T09:06:36.778Z,14.20
2022-09-29T09:12:07.149Z,14.70
2022-09-29T09:17:20.784Z,15.00
2022-09-29T09:22:24.984Z,15.10
2022-09-29T09:27:36.223Z,15.20
2022-09-29T09:32:45.894Z,15.30
2022-09-29T09:37:50.777Z,15.50
2022-09-29T09:43:03.684Z,15.60
2022-09-29T09:48:12.312Z,15.90
2022-09-29T09:53:19.750Z,16.40
2022-09-29T09:59:01.376Z,17.00
2022-09-29T10:04:04.271Z,17.80
2022-09-29T10:09:06.616Z,18.60
2022-09-29T10:14:15.805Z,19.40
2022-09-29T10:19:22.085Z,19.90
2022-09-29T10:24:28.428Z,20.40
2022-09-29T10:29:38.566Z,20.50
2022-09-29T10:34:43.225Z,20.60
2022-09-29T10:39:47.485Z,20.60
2022-09-29T10:45:02.883Z,20.60
2022-09-29T10:50:14.047Z,20.60
2022-09-29T10:55:19.040Z,20.50
2022-09-29T11:00:29.864Z,20.30
2022-09-29T11:05:33.038Z,20.10
2022-09-29T11:10:38.086Z,20.00
2022-09-29T11:15:42.169Z,19.90
2022-09-29T11:20:46.041Z,19.90
2022-09-29T11:26:17.560Z,19.90
2022-09-29T11:31:36.197Z,20.00
2022-09-29T11:36:46.344Z,19.90
2022-09-29T11:42:05.644Z,19.90
2022-09-29T11:47:25.895Z,19.80
2022-09-29T11:52:58.378Z,19.60
2022-09-29T11:58:14.292Z,19.70
2022-09-29T12:03:31.248Z,19.70
2022-09-29T12:08:49.866Z,19.90
2022-09-29T12:14:01.103Z,20.00
2022-09-29T12:19:12.196Z,19.90
2022-09-29T12:24:19.370Z,19.90
2022-09-29T12:29:33.417Z,19.80
2022-09-29T12:34:44.502Z,19.70
2022-09-29T12:39:56.594Z,19.50
2022-09-29T12:45:10.685Z,19.50
2022-09-29T12:50:20.433Z,19.40
2022-09-29T12:55:31.211Z,19.40
2022-09-29T13:00:37.215Z,19.50
2022-09-29T13:06:05.191Z,19.50
2022-09-29T13:11:44.546Z,19.40
2022-09-29T13:17:01.573Z,19.20
2022-09-29T13:22:30.184Z,18.80
2022-09-29T13:27:36.562Z,18.40
2022-09-29T13:32:41.670Z,18.10
2022-09-29T13:37:49.835Z,17.90
2022-09-29T13:42:53.699Z,17.80
2022-09-29T13:47:58.285Z,17.80
2022-09-29T13:53:30.238Z,17.80
2022-09-29T13:58:36.887Z,18.10
2022-09-29T14:03:41.171Z,18.30
2022-09-29T14:08:49.443Z,18.50
2022-09-29T14:14:00.028Z,18.70
2022-09-29T14:19:07.846Z,18.90
2022-09-29T14:24:44.408Z,19.00
2022-09-29T14:29:51.999Z,19.10
2022-09-29T14:34:55.242Z,19.10
2022-09-29T14:40:02.143Z,19.10
2022-09-29T14:45:08.565Z,19.00
2022-09-29T14:50:26.246Z,18.90
2022-09-29T14:55:38.072Z,18.80
2022-09-29T15:01:04.988Z,18.70
2022-09-29T15:06:13.073Z,18.60
2022-09-29T15:11:37.879Z,18.60
2022-09-29T15:16:50.236Z,18.60
2022-09-29T15:22:05.528Z,18.50
2022-09-29T15:27:14.037Z,18.50
2022-09-29T15:32:24.885Z,18.40
2022-09-29T15:37:27.593Z,18.40
2022-09-29T15:42:29.997Z,18.20
2022-09-29T15:47:40.095Z,18.10
2022-09-29T15:52:42.612Z,17.90
2022-09-29T15:57:47.382Z,17.70
2022-09-29T16:02:59.461Z,17.50
2022-09-29T16:08:04.509Z,17.30
2022-09-29T16:13:16.585Z,17.10
2022-09-29T16:18:24.533Z,16.90
2022-09-29T16:23:29.406Z,16.70
2022-09-29T16:28:31.927Z,16.60
2022-09-29T16:33:38.413Z,16.50
2022-09-29T16:38:45.607Z,16.40
2022-09-29T16:43:48.155Z,16.30
2022-09-29T16:48:52.102Z,16.20
2022-09-29T16:53:59.423Z,16.00
2022-09-29T16:59:09.786Z,15.80
2022-09-29T17:04:13.767Z,15.70
2022-09-29T17:09:20.385Z,15.60
2022-09-29T17:14:22.948Z,15.40
2022-09-29T17:19:26.801Z,15.40
2022-09-29T17:24:29.447Z,15.20
2022-09-29T17:29:32.761Z,15.20
2022-09-29T17:34:36.700Z,15.10
2022-09-29T17:39:39.274Z,15.00
2022-09-29T17:44:41.833Z,14.90
2022-09-29T17:49:46.665Z,14.80
2022-09-29T17:54:49.154Z,14.70
2022-09-29T17:59:51.976Z,14.70
2022-09-29T18:04:56.014Z,14.70
2022-09-29T18:09:58.994Z,14.70
2022-09-29T18:15:01.485Z,14.70
2022-09-29T18:20:13.565Z,14.70
2022-09-29T18:25:18.377Z,14.70
2022-09-29T18:30:22.682Z,14.70
2022-09-29T18:35:29.614Z,14.70
2022-09-29T18:40:32.488Z,14.70
2022-09-29T18:45:37.881Z,14.70
2022-09-29T18:50:45.191Z,14.60
2022-09-29T18:55:48.475Z,14.50
2022-09-29T19:00:53.922Z,14.50
2022-09-29T19:05:58.183Z,14.40
2022-09-29T19:11:01.462Z,14.40
2022-09-29T19:16:04.117Z,14.40
2022-09-29T19:21:11.987Z,14.40
2022-09-29T19:26:22.154Z,14.40
2022-09-29T19:31:26.578Z,14.50
2022-09-29T19:36:33.154Z,14.40
2022-09-29T19:41:38.757Z,14.50
2022-09-29T19:46:41.829Z,14.40
2022-09-29T19:51:47.618Z,14.40
2022-09-29T19:56:52.673Z,14.40
2022-09-29T20:01:56.411Z,14.30
2022-09-29T20:07:00.770Z,14.40
2022-09-29T20:12:03.397Z,14.30
2022-09-29T20:17:05.957Z,14.30
2022-09-29T20:22:09.931Z,14.30
2022-09-29T20:27:12.438Z,14.20
2022-09-29T20:32:15.270Z,14.10
2022-09-29T20:37:19.308Z,14.00
2022-09-29T20:42:22.642Z,13.90
2022-09-29T20:47:25.304Z,13.80
2022-09-29T20:52:29.015Z,13.80
2022-09-29T20:57:32.413Z,13.70
2022-09-29T21:02:34.910Z,13.70
2022-09-29T21:07:38.744Z,13.60
2022-09-29T21:12:41.013Z,13.70
2022-09-29T21:17:43.459Z,13.60
2022-09-29T21:22:47.328Z,13.60
2022-09-29T21:27:50.725Z,13.70
2022-09-29T21:32:53.032Z,13.60
2022-09-29T21:37:57.072Z,13.50
2022-09-29T21:42:59.502Z,13.30
2022-09-29T21:48:02.038Z,13.20
2022-09-29T21:53:06.727Z,13.10
2022-09-29T21:58:09.384Z,13.10
2022-09-29T22:03:11.692Z,13.00
2022-09-29T22:08:15.783Z,13.00
2022-09-29T22:13:18.730Z,13.00
2022-09-29T22:18:21.607Z,13.00
2022-09-29T22:23:27.845Z,13.00
2022-09-29T22:28:31.614Z,13.10
2022-09-29T22:33:34.179Z,13.20
2022-09-29T22:38:39.303Z,13.20
2022-09-29T22:43:42.209Z,13.30
2022-09-29T22:48:44.628Z,13.30
2022-09-29T22:53:49.110Z,13.30
2022-09-29T22:58:51.670Z,13.30
2022-09-29T23:03:54.427Z,13.30
2022-09-29T23:08:59.066Z,13.30
2022-09-29T23:14:01.429Z,13.30
2022-09-29T23:19:04.220Z,13.30
2022-09-29T23:24:08.928Z,13.40
2022-09-29T23:29:11.999Z,13.30
2022-09-29T23:34:14.507Z,13.30
2022-09-29T23:39:18.608Z,13.20
2022-09-29T23:44:23.272Z,13.20
2022-09-29T23:49:27.617Z,13.10
2022-09-29T23:54:31.626Z,13.00
2022-09-29T23:59:34.428Z,13.00
